Time;durP1;ratioP1;P1;durP2;ratioP2;P2;SDS_P1;SDS_P2;PMS_P1;PMS_P2;Temp;Humidity;BMP_temperature;BMP_pressure;BME280_temperature;BME280_humidity;BME280_pressure;Samples;Min_cycle;Max_cycle;Signal;HPM_P1;HPM_P2
2022/05/21 00:01:33;;;;;;;3.03;1.85;;;;;;;;;;5095672;28;20039;-76
2022/05/21 00:07:33;;;;;;;4.38;1.98;;;;;;;;;;5095797;28;20477;-75
2022/05/21 00:13:33;;;;;;;4.70;1.75;;;;;;;;;;5095436;28;20027;-76
2022/05/21 00:19:33;;;;;;;2.15;1.60;;;;;;;;;;5095457;28;20563;-75
2022/05/21 00:25:33;;;;;;;3.42;1.55;;;;;;;;;;5095480;28;20031;-75
2022/05/21 00:31:33;;;;;;;4.07;1.70;;;;;;;;;;5095332;28;20159;-75
2022/05/21 00:37:33;;;;;;;4.97;1.80;;;;;;;;;;5094991;28;20027;-75
2022/05/21 00:43:33;;;;;;;3.42;1.63;;;;;;;;;;5095124;28;20077;-75
2022/05/21 00:59:47;;;;;;;2.40;1.40;;;;;;;;;;5094932;28;20414;-76
2022/05/21 01:04:45;;;;;;;1.42;1.30;;;;;;;;;;5052252;28;20019;-75
2022/05/21 01:10:48;;;;;;;2.08;1.48;;;;;;;;;;5052288;28;20044;-75
2022/05/21 01:13:27;;;;;;;1.40;1.30;;;;;;;;;;5052020;28;20098;-75
2022/05/21 01:19:28;;;;;;;7.80;1.60;;;;;;;;;;5051914;28;20074;-75
2022/05/21 01:25:29;;;;;;;1.80;1.48;;;;;;;;;;5052108;28;20027;-76
2022/05/21 01:31:29;;;;;;;2.65;1.73;;;;;;;;;;5070846;28;20036;-76
2022/05/21 01:37:30;;;;;;;3.20;1.60;;;;;;;;;;5094235;28;20042;-75
2022/05/21 01:50:21;;;;;;;1.27;0.98;;;;;;;;;;5094082;28;20031;-75
2022/05/21 02:00:23;;;;;;;1.95;1.25;;;;;;;;;;5093859;28;20071;-76
2022/05/21 02:06:24;;;;;;;4.32;1.25;;;;;;;;;;5093942;28;20023;-75
2022/05/21 02:12:24;;;;;;;1.48;1.10;;;;;;;;;;5093626;28;20061;-75
2022/05/21 02:18:25;;;;;;;2.83;1.40;;;;;;;;;;5094122;28;20026;-75
2022/05/21 02:24:25;;;;;;;1.88;1.30;;;;;;;;;;5093787;28;20058;-75
2022/05/21 02:30:26;;;;;;;3.80;1.38;;;;;;;;;;5093728;28;20433;-75
2022/05/21 02:42:48;;;;;;;1.40;1.30;;;;;;;;;;5093212;28;20551;-76
2022/05/21 02:45:21;;;;;;;1.43;1.10;;;;;;;;;;5094433;28;20055;-76
2022/05/21 02:47:47;;;;;;;1.73;1.30;;;;;;;;;;5097180;28;20746;-76
2022/05/21 02:50:13;;;;;;;1.95;1.38;;;;;;;;;;5097011;28;20111;-75
2022/05/21 02:52:38;;;;;;;1.05;1.02;;;;;;;;;;5097093;28;20059;-75
2022/05/21 02:55:05;;;;;;;1.67;1.38;;;;;;;;;;5096752;28;20063;-76
2022/05/21 02:57:31;;;;;;;1.45;1.30;;;;;;;;;;5096821;28;20048;-76
2022/05/21 02:59:59;;;;;;;3.58;1.40;;;;;;;;;;5096745;28;20421;-75
2022/05/21 03:02:25;;;;;;;2.40;1.35;;;;;;;;;;5096759;28;20052;-75
2022/05/21 03:04:50;;;;;;;2.42;1.20;;;;;;;;;;5096750;28;20486;-75
2022/05/21 03:07:15;;;;;;;2.45;1.27;;;;;;;;;;5096631;28;20044;-75
2022/05/21 03:12:25;;;;;;;2.45;1.63;;;;;;;;;;5096493;28;20036;-75
2022/05/21 03:14:50;;;;;;;2.23;1.50;;;;;;;;;;5096566;28;20036;-75
2022/05/21 03:17:15;;;;;;;2.65;1.50;;;;;;;;;;5096506;28;20365;-75
2022/05/21 03:19:41;;;;;;;2.70;1.47;;;;;;;;;;5096520;28;20031;-76
2022/05/21 03:22:06;;;;;;;3.88;1.45;;;;;;;;;;5096445;28;20278;-75
2022/05/21 03:24:31;;;;;;;1.92;1.73;;;;;;;;;;5096369;28;20501;-75
2022/05/21 03:26:57;;;;;;;2.08;1.48;;;;;;;;;;5096259;28;20086;-75
2022/05/21 03:29:22;;;;;;;2.47;1.35;;;;;;;;;;5096420;28;20024;-76
2022/05/21 03:31:48;;;;;;;4.13;1.40;;;;;;;;;;5096245;28;20540;-75
2022/05/21 03:34:13;;;;;;;2.13;1.50;;;;;;;;;;5096339;28;20024;-75
2022/05/21 03:36:39;;;;;;;2.22;1.52;;;;;;;;;;5096140;28;20254;-75
2022/05/21 03:39:05;;;;;;;2.13;1.60;;;;;;;;;;5096151;28;20016;-76
2022/05/21 03:41:31;;;;;;;2.28;1.40;;;;;;;;;;5095954;28;20094;-75
2022/05/21 03:43:57;;;;;;;4.28;1.52;;;;;;;;;;5096003;28;20081;-75
2022/05/21 03:46:22;;;;;;;2.35;1.52;;;;;;;;;;5095981;28;20040;-76
2022/05/21 03:48:48;;;;;;;2.60;1.55;;;;;;;;;;5095879;28;20031;-75
2022/05/21 03:51:13;;;;;;;3.03;1.60;;;;;;;;;;5095820;28;20024;-75
2022/05/21 03:53:38;;;;;;;2.08;1.33;;;;;;;;;;5095794;28;20020;-76
2022/05/21 03:56:04;;;;;;;2.13;1.55;;;;;;;;;;5095419;28;20054;-76
2022/05/21 03:58:30;;;;;;;3.10;1.55;;;;;;;;;;5095173;28;20079;-76
2022/05/21 04:00:56;;;;;;;2.78;1.77;;;;;;;;;;5095567;28;20492;-76
2022/05/21 04:03:22;;;;;;;4.57;2.15;;;;;;;;;;5094386;28;20024;-75
2022/05/21 04:05:48;;;;;;;2.30;2.08;;;;;;;;;;5095589;28;20115;-75
2022/05/21 04:08:15;;;;;;;3.15;1.92;;;;;;;;;;5095517;28;20481;-76
2022/05/21 04:10:41;;;;;;;3.70;1.80;;;;;;;;;;5095422;28;20059;-76
2022/05/21 04:13:06;;;;;;;2.30;1.80;;;;;;;;;;5095476;28;20466;-76
2022/05/21 04:15:32;;;;;;;1.92;1.83;;;;;;;;;;5095312;28;20805;-75
2022/05/21 04:17:57;;;;;;;4.30;1.73;;;;;;;;;;5095475;28;20028;-75
2022/05/21 04:20:23;;;;;;;6.20;1.92;;;;;;;;;;5095241;28;20040;-76
2022/05/21 04:22:48;;;;;;;4.55;1.88;;;;;;;;;;5095229;28;20028;-76
2022/05/21 04:25:14;;;;;;;6.05;2.25;;;;;;;;;;5095113;28;20036;-76
2022/05/21 04:27:40;;;;;;;4.90;2.25;;;;;;;;;;5095159;28;20032;-75
2022/05/21 04:30:07;;;;;;;2.95;2.17;;;;;;;;;;5095078;28;20037;-75
2022/05/21 04:32:32;;;;;;;4.90;2.13;;;;;;;;;;5095084;28;20057;-76
2022/05/21 04:34:58;;;;;;;5.90;2.25;;;;;;;;;;5095010;28;20044;-76
2022/05/21 04:37:23;;;;;;;3.63;1.98;;;;;;;;;;5094904;28;20443;-75
2022/05/21 04:39:48;;;;;;;4.40;2.05;;;;;;;;;;5094831;28;20032;-75
2022/05/21 04:42:14;;;;;;;2.90;1.88;;;;;;;;;;5094827;28;20103;-75
2022/05/21 04:44:39;;;;;;;2.65;1.83;;;;;;;;;;5094800;28;20509;-76
2022/05/21 04:47:05;;;;;;;3.37;1.67;;;;;;;;;;5094841;28;20036;-76
2022/05/21 04:49:31;;;;;;;2.70;1.60;;;;;;;;;;5094792;28;20317;-75
2022/05/21 04:52:00;;;;;;;2.90;1.95;;;;;;;;;;5094826;28;20028;-76
2022/05/21 04:54:25;;;;;;;3.75;1.70;;;;;;;;;;5094645;28;20114;-76
2022/05/21 04:56:51;;;;;;;2.37;1.87;;;;;;;;;;5094417;28;20056;-76
2022/05/21 04:59:16;;;;;;;4.78;1.88;;;;;;;;;;5093334;28;20285;-76
2022/05/21 05:01:41;;;;;;;2.25;1.50;;;;;;;;;;5094523;28;20047;-75
2022/05/21 05:04:07;;;;;;;2.88;1.60;;;;;;;;;;5093374;28;20108;-76
2022/05/21 05:06:32;;;;;;;1.92;1.48;;;;;;;;;;5094484;28;20039;-76
2022/05/21 05:08:58;;;;;;;2.35;1.80;;;;;;;;;;5094246;28;20054;-76
2022/05/21 05:11:23;;;;;;;5.50;1.85;;;;;;;;;;5094358;28;20035;-76
2022/05/21 05:13:49;;;;;;;2.55;1.42;;;;;;;;;;5094288;28;20554;-76
2022/05/21 05:16:14;;;;;;;2.72;1.67;;;;;;;;;;5094206;28;20056;-75
2022/05/21 05:18:39;;;;;;;3.15;2.15;;;;;;;;;;5094176;28;20458;-76
2022/05/21 05:21:05;;;;;;;3.15;2.00;;;;;;;;;;5094083;28;20032;-76
2022/05/21 05:23:30;;;;;;;2.50;1.92;;;;;;;;;;5094096;28;20036;-76
2022/05/21 05:25:55;;;;;;;2.33;2.13;;;;;;;;;;5094136;28;20085;-76
2022/05/21 05:28:23;;;;;;;1.90;1.73;;;;;;;;;;5094055;28;20036;-76
2022/05/21 05:30:49;;;;;;;4.68;1.63;;;;;;;;;;5094078;28;20058;-76
2022/05/21 05:33:18;;;;;;;1.95;1.38;;;;;;;;;;5094006;28;20507;-76
2022/05/21 05:35:43;;;;;;;1.98;1.50;;;;;;;;;;5093983;28;20036;-76
2022/05/21 05:38:10;;;;;;;4.05;1.58;;;;;;;;;;5093952;28;20044;-76
2022/05/21 05:40:36;;;;;;;1.95;1.50;;;;;;;;;;5093821;28;20032;-76
2022/05/21 05:43:02;;;;;;;11.93;1.55;;;;;;;;;;5093884;28;20470;-76
2022/05/21 05:45:27;;;;;;;2.20;1.70;;;;;;;;;;5092987;28;20636;-76
2022/05/21 05:47:53;;;;;;;2.85;1.30;;;;;;;;;;5093752;28;20098;-76
2022/05/21 05:50:19;;;;;;;2.60;1.85;;;;;;;;;;5093909;28;20032;-76
2022/05/21 05:52:44;;;;;;;2.08;1.48;;;;;;;;;;5092452;28;20051;-76
2022/05/21 05:55:09;;;;;;;1.60;1.50;;;;;;;;;;5093606;28;20031;-76
2022/05/21 05:57:35;;;;;;;1.80;1.70;;;;;;;;;;5093695;28;20044;-76
2022/05/21 06:00:02;;;;;;;3.08;1.63;;;;;;;;;;5092426;28;20040;-76
2022/05/21 06:05:24;;;;;;;2.67;1.30;;;;;;;;;;5093612;28;20039;-76
2022/05/21 06:07:55;;;;;;;3.53;1.70;;;;;;;;;;5093597;28;20081;-76
2022/05/21 06:10:22;;;;;;;3.78;1.50;;;;;;;;;;5093573;28;20088;-75
2022/05/21 06:12:48;;;;;;;1.38;1.30;;;;;;;;;;5093580;28;20024;-76
2022/05/21 06:15:14;;;;;;;1.80;1.33;;;;;;;;;;5093495;28;20501;-76
2022/05/21 06:17:39;;;;;;;2.72;0.98;;;;;;;;;;5093532;28;20028;-76
2022/05/21 06:20:05;;;;;;;1.63;1.10;;;;;;;;;;5094302;28;20086;-75
2022/05/21 06:22:32;;;;;;;5.28;1.23;;;;;;;;;;5097554;28;20459;-76
2022/05/21 06:24:58;;;;;;;5.35;1.40;;;;;;;;;;5097532;28;20390;-76
2022/05/21 06:27:23;;;;;;;1.25;1.10;;;;;;;;;;5097444;28;20020;-76
2022/05/21 06:29:48;;;;;;;2.53;1.02;;;;;;;;;;5097379;28;20457;-76
2022/05/21 06:32:14;;;;;;;1.65;1.13;;;;;;;;;;5097404;28;20039;-76
2022/05/21 06:34:39;;;;;;;2.58;1.63;;;;;;;;;;5096055;28;20039;-76
2022/05/21 06:37:05;;;;;;;3.83;1.43;;;;;;;;;;5097264;28;20031;-76
2022/05/21 06:39:32;;;;;;;2.55;1.48;;;;;;;;;;5097111;28;20736;-76
2022/05/21 06:41:57;;;;;;;1.67;1.08;;;;;;;;;;5097203;28;20478;-76
2022/05/21 06:44:23;;;;;;;1.20;0.80;;;;;;;;;;5097097;28;20127;-76
2022/05/21 06:46:48;;;;;;;4.63;1.10;;;;;;;;;;5097115;28;20556;-76
2022/05/21 06:49:15;;;;;;;3.28;1.17;;;;;;;;;;5097121;28;20115;-76
2022/05/21 06:51:40;;;;;;;2.97;1.10;;;;;;;;;;5097001;28;20504;-76
2022/05/21 06:54:06;;;;;;;2.00;1.00;;;;;;;;;;5096934;28;20040;-76
2022/05/21 06:56:31;;;;;;;2.77;1.17;;;;;;;;;;5095461;28;20078;-76
2022/05/21 06:58:56;;;;;;;2.03;0.90;;;;;;;;;;5097000;28;20306;-76
2022/05/21 07:01:21;;;;;;;1.50;0.80;;;;;;;;;;5096861;28;20036;-76
2022/05/21 07:03:47;;;;;;;2.70;0.90;;;;;;;;;;5095433;28;20293;-76
2022/05/21 07:08:56;;;;;;;1.52;0.90;;;;;;;;;;5096763;28;20628;-76
2022/05/21 07:11:21;;;;;;;1.98;0.80;;;;;;;;;;5096597;28;20150;-76
2022/05/21 07:13:46;;;;;;;2.17;0.70;;;;;;;;;;5096569;28;20482;-76
2022/05/21 07:16:12;;;;;;;3.67;0.80;;;;;;;;;;5096558;28;20035;-76
2022/05/21 07:18:37;;;;;;;2.53;0.70;;;;;;;;;;5096598;28;20283;-76
2022/05/21 07:21:03;;;;;;;2.28;0.55;;;;;;;;;;5096440;28;20032;-76
2022/05/21 07:23:29;;;;;;;1.67;0.93;;;;;;;;;;5096536;28;20059;-76
2022/05/21 07:25:55;;;;;;;0.55;0.55;;;;;;;;;;5096369;28;20059;-76
2022/05/21 07:28:21;;;;;;;4.30;0.85;;;;;;;;;;5096381;28;20050;-76
2022/05/21 07:30:46;;;;;;;3.67;0.85;;;;;;;;;;5096085;28;20099;-76
2022/05/21 07:33:13;;;;;;;0.60;0.57;;;;;;;;;;5095225;28;20094;-76
2022/05/21 07:35:39;;;;;;;1.92;0.60;;;;;;;;;;5096207;28;20027;-76
2022/05/21 07:38:08;;;;;;;1.38;0.60;;;;;;;;;;5096192;28;20052;-76
2022/05/21 07:40:34;;;;;;;1.20;0.50;;;;;;;;;;5096000;28;20390;-76
2022/05/21 07:43:07;;;;;;;1.13;0.50;;;;;;;;;;5096032;28;20035;-76
2022/05/21 07:45:38;;;;;;;8.23;0.68;;;;;;;;;;5095954;28;20084;-76
2022/05/21 07:48:03;;;;;;;;;;;;;;;;;;5096640;28;20044;-76
2022/05/21 07:50:28;;;;;;;1.10;0.40;;;;;;;;;;5095822;28;19952;-76
2022/05/21 07:52:54;;;;;;;2.65;0.52;;;;;;;;;;5095870;28;20089;-76
2022/05/21 07:55:19;;;;;;;1.20;0.50;;;;;;;;;;5095734;28;20047;-76
2022/05/21 07:57:44;;;;;;;2.17;0.50;;;;;;;;;;5095689;28;20357;-76
2022/05/21 08:00:11;;;;;;;2.20;0.50;;;;;;;;;;5095744;28;20048;-76
2022/05/21 08:02:40;;;;;;;0.40;0.40;;;;;;;;;;5096219;28;20086;-76
2022/05/21 08:05:05;;;;;;;0.57;0.50;;;;;;;;;;5095772;28;20391;-75
2022/05/21 08:07:31;;;;;;;1.83;0.40;;;;;;;;;;5095623;28;20115;-76
2022/05/21 08:09:56;;;;;;;2.30;0.40;;;;;;;;;;5095722;28;20429;-76
2022/05/21 08:12:21;;;;;;;1.30;0.40;;;;;;;;;;5095458;28;20040;-76
2022/05/21 08:14:46;;;;;;;1.17;0.47;;;;;;;;;;5095406;28;20110;-76
2022/05/21 08:17:12;;;;;;;0.93;0.45;;;;;;;;;;5095375;28;20364;-76
2022/05/21 08:19:37;;;;;;;2.38;0.40;;;;;;;;;;5095286;28;20084;-76
2022/05/21 08:27:31;;;;;;;1.13;0.40;;;;;;;;;;5095536;28;20067;-76
2022/05/21 08:29:56;;;;;;;2.65;0.40;;;;;;;;;;5095119;28;20051;-76
2022/05/21 08:32:21;;;;;;;1.45;0.38;;;;;;;;;;5093925;28;20537;-76
2022/05/21 08:34:47;;;;;;;0.30;0.30;;;;;;;;;;5095038;28;20108;-76
2022/05/21 08:37:12;;;;;;;1.42;0.35;;;;;;;;;;5094953;28;20052;-76
2022/05/21 08:39:38;;;;;;;0.85;0.40;;;;;;;;;;5094876;28;20032;-76
2022/05/21 08:42:17;;;;;;;0.85;0.40;;;;;;;;;;5094849;28;20040;-76
2022/05/21 08:44:47;;;;;;;0.63;0.57;;;;;;;;;;5094583;28;20054;-76
2022/05/21 08:47:18;;;;;;;2.50;0.50;;;;;;;;;;5094813;28;20039;-76
2022/05/21 08:49:46;;;;;;;1.38;0.40;;;;;;;;;;5094794;28;20036;-76
2022/05/21 08:52:16;;;;;;;3.95;0.40;;;;;;;;;;5094817;28;20051;-76
2022/05/21 08:54:44;;;;;;;0.80;0.40;;;;;;;;;;5094665;28;20039;-76
2022/05/21 08:57:13;;;;;;;4.93;0.40;;;;;;;;;;5094510;28;20047;-76
2022/05/21 08:59:42;;;;;;;2.08;0.47;;;;;;;;;;5094513;28;20040;-76
2022/05/21 09:02:11;;;;;;;4.37;0.57;;;;;;;;;;5093302;28;20135;-76
2022/05/21 09:04:36;;;;;;;3.83;0.22;;;;;;;;;;5094494;28;20332;-76
2022/05/21 09:07:04;;;;;;;0.85;0.40;;;;;;;;;;5094426;28;20421;-76
2022/05/21 09:10:02;;;;;;;5.03;0.65;;;;;;;;;;5094474;28;20066;-76
2022/05/21 09:12:33;;;;;;;1.45;0.57;;;;;;;;;;5049588;28;20040;-76
2022/05/21 09:15:02;;;;;;;2.47;0.43;;;;;;;;;;5094366;28;20043;-76
2022/05/21 09:17:27;;;;;;;2.15;0.40;;;;;;;;;;5094348;28;20042;-76
2022/05/21 09:19:57;;;;;;;1.33;0.52;;;;;;;;;;5094151;28;20423;-76
2022/05/21 09:22:24;;;;;;;4.32;0.52;;;;;;;;;;5094453;28;20131;-76
2022/05/21 09:24:52;;;;;;;1.15;0.40;;;;;;;;;;5094170;28;20032;-76
2022/05/21 09:27:21;;;;;;;2.47;0.43;;;;;;;;;;5094157;28;20043;-76
2022/05/21 09:29:46;;;;;;;2.13;0.40;;;;;;;;;;5092760;28;20433;-76
2022/05/21 09:32:17;;;;;;;0.15;0.15;;;;;;;;;;5094018;28;20040;-76
2022/05/21 09:34:42;;;;;;;1.52;0.40;;;;;;;;;;5094004;28;20036;-76
2022/05/21 09:37:13;;;;;;;2.35;0.40;;;;;;;;;;5093987;28;20020;-76
2022/05/21 09:39:39;;;;;;;2.17;0.43;;;;;;;;;;5093819;28;20040;-76
2022/05/21 09:45:22;;;;;;;1.05;0.40;;;;;;;;;;5093934;28;20035;-76
2022/05/21 09:47:45;;;;;;;0.47;0.47;;;;;;;;;;5093773;28;20039;-76
2022/05/21 09:50:11;;;;;;;1.05;0.50;;;;;;;;;;5093832;28;20032;-76
2022/05/21 09:52:37;;;;;;;3.25;0.63;;;;;;;;;;5093848;28;20459;-76
2022/05/21 09:55:03;;;;;;;1.58;0.50;;;;;;;;;;5092824;28;20068;-76
2022/05/21 09:57:39;;;;;;;6.22;0.50;;;;;;;;;;5093738;28;20474;-76
2022/05/21 10:00:04;;;;;;;1.67;0.40;;;;;;;;;;5093684;28;20088;-76
2022/05/21 10:02:40;;;;;;;0.30;0.30;;;;;;;;;;5093681;28;20021;-76
2022/05/21 10:05:08;;;;;;;4.32;0.30;;;;;;;;;;5092437;28;20044;-76
2022/05/21 10:13:15;;;;;;;0.30;0.30;;;;;;;;;;5093749;28;20036;-76
2022/05/21 10:15:43;;;;;;;2.78;0.50;;;;;;;;;;5093816;28;20051;-76
2022/05/21 10:18:14;;;;;;;2.95;0.50;;;;;;;;;;5092362;28;20314;-76
2022/05/21 10:20:42;;;;;;;2.47;0.57;;;;;;;;;;5093552;28;20068;-76
2022/05/21 10:23:08;;;;;;;2.17;0.73;;;;;;;;;;5093647;28;20497;-76
2022/05/21 10:25:47;;;;;;;1.90;0.60;;;;;;;;;;5093464;28;20061;-76
2022/05/21 10:28:15;;;;;;;3.42;0.50;;;;;;;;;;5093705;28;20111;-76
2022/05/21 10:30:46;;;;;;;2.10;0.50;;;;;;;;;;5093401;28;20077;-76
2022/05/21 10:33:23;;;;;;;3.50;0.50;;;;;;;;;;5092038;28;20460;-75
2022/05/21 10:35:59;;;;;;;2.28;0.60;;;;;;;;;;5093473;28;20390;-76
2022/05/21 10:38:46;;;;;;;2.10;0.50;;;;;;;;;;5093518;28;20036;-75
2022/05/21 10:41:21;;;;;;;1.95;0.60;;;;;;;;;;5092076;28;20051;-76
2022/05/21 10:44:07;;;;;;;2.22;0.82;;;;;;;;;;5093336;28;20028;-76
2022/05/21 10:46:53;;;;;;;0.73;0.40;;;;;;;;;;5093291;28;20071;-75
2022/05/21 10:49:36;;;;;;;5.97;0.60;;;;;;;;;;5093340;28;20489;-76
2022/05/21 10:52:02;;;;;;;0.52;0.50;;;;;;;;;;5093332;28;20032;-75
2022/05/21 10:54:27;;;;;;;3.45;0.65;;;;;;;;;;5093412;28;20374;-75
2022/05/21 10:57:29;;;;;;;0.77;0.30;;;;;;;;;;5091772;28;20040;-75
2022/05/21 11:00:03;;;;;;;12.38;1.95;;;;;;;;;;5011072;28;20060;-75
2022/05/21 11:02:47;;;;;;;2.45;1.20;;;;;;;;;;5081017;28;20043;-75
2022/05/21 11:05:22;;;;;;;2.45;1.17;;;;;;;;;;5093161;28;20046;-76
2022/05/21 11:07:58;;;;;;;1.30;1.00;;;;;;;;;;5096687;28;20371;-75
2022/05/21 11:10:43;;;;;;;2.20;0.95;;;;;;;;;;5096816;28;20044;-75
2022/05/21 11:13:19;;;;;;;2.92;1.00;;;;;;;;;;5096675;28;20500;-75
2022/05/21 11:15:50;;;;;;;6.20;0.77;;;;;;;;;;5096842;28;20043;-75
2022/05/21 11:18:16;;;;;;;;;;;;;;;;;;5093543;28;20052;-75
2022/05/21 11:20:47;;;;;;;1.83;1.27;;;;;;;;;;5096446;28;19927;-75
2022/05/21 11:23:12;;;;;;;2.10;1.65;;;;;;;;;;5096398;28;20033;-75
2022/05/21 11:25:43;;;;;;;1.10;0.95;;;;;;;;;;5096412;28;20115;-75
2022/05/21 11:28:21;;;;;;;2.47;1.48;;;;;;;;;;5096463;28;20119;-75
2022/05/21 11:30:46;;;;;;;1.88;1.20;;;;;;;;;;5096366;28;20512;-75
2022/05/21 11:38:54;;;;;;;2.92;1.77;;;;;;;;;;5096123;28;20055;-75
2022/05/21 11:41:29;;;;;;;2.08;1.88;;;;;;;;;;5096086;28;20028;-76
2022/05/21 11:43:58;;;;;;;2.65;1.88;;;;;;;;;;5096078;28;20111;-75
2022/05/21 11:46:36;;;;;;;3.45;1.20;;;;;;;;;;5096052;28;20466;-75
2022/05/21 11:49:20;;;;;;;2.42;1.10;;;;;;;;;;5096043;28;20085;-75
2022/05/21 11:51:46;;;;;;;2.58;0.98;;;;;;;;;;5095888;28;20043;-76
2022/05/21 11:54:31;;;;;;;1.30;0.60;;;;;;;;;;5095855;28;20024;-75
2022/05/21 11:57:01;;;;;;;2.88;0.77;;;;;;;;;;5095676;28;20745;-75
2022/05/21 11:59:46;;;;;;;2.38;0.60;;;;;;;;;;5095945;28;20457;-76
2022/05/21 12:02:29;;;;;;;2.67;0.50;;;;;;;;;;5095635;28;20127;-75
2022/05/21 12:04:56;;;;;;;0.52;0.43;;;;;;;;;;5095704;28;20144;-75
2022/05/21 12:07:40;;;;;;;0.93;0.50;;;;;;;;;;5095583;28;20390;-75
2022/05/21 12:10:12;;;;;;;2.85;0.68;;;;;;;;;;5095818;28;20040;-76
2022/05/21 12:12:58;;;;;;;1.48;0.60;;;;;;;;;;5095542;28;20039;-75
2022/05/21 12:15:33;;;;;;;4.40;0.80;;;;;;;;;;5095597;28;20028;-75
2022/05/21 12:18:03;;;;;;;0.68;0.60;;;;;;;;;;5093316;28;20467;-75
2022/05/21 12:21:01;;;;;;;0.50;0.50;;;;;;;;;;5095388;28;20039;-75
2022/05/21 12:23:32;;;;;;;1.20;0.70;;;;;;;;;;5050940;28;20327;-75
2022/05/21 12:26:12;;;;;;;0.90;0.70;;;;;;;;;;5095268;28;20433;-76
2022/05/21 12:28:46;;;;;;;2.60;0.73;;;;;;;;;;5093896;28;20398;-75
2022/05/21 12:31:20;;;;;;;3.90;0.60;;;;;;;;;;5095207;28;20032;-75
2022/05/21 12:34:20;;;;;;;1.65;0.55;;;;;;;;;;5093806;28;20067;-75
2022/05/21 12:37:06;;;;;;;0.63;0.45;;;;;;;;;;5051710;28;20464;-75
2022/05/21 12:39:32;;;;;;;1.13;0.50;;;;;;;;;;5094982;28;20056;-75
2022/05/21 12:42:10;;;;;;;0.60;0.50;;;;;;;;;;5076815;28;20108;-75
2022/05/21 12:44:38;;;;;;;0.93;0.93;;;;;;;;;;5094865;28;20060;-75
2022/05/21 12:47:03;;;;;;;1.40;1.15;;;;;;;;;;5094812;28;20031;-75
2022/05/21 12:49:30;;;;;;;2.08;1.58;;;;;;;;;;5093818;28;20044;-75
2022/05/21 12:51:55;;;;;;;5.60;3.15;;;;;;;;;;5094808;28;20020;-75
2022/05/21 12:54:23;;;;;;;4.05;2.28;;;;;;;;;;5094692;28;20136;-75
2022/05/21 12:56:48;;;;;;;4.18;3.88;;;;;;;;;;5094707;28;20089;-75
2022/05/21 12:59:18;;;;;;;6.18;4.10;;;;;;;;;;5094639;28;20486;-75
2022/05/21 13:01:55;;;;;;;4.03;2.88;;;;;;;;;;5094507;28;20032;-75
2022/05/21 13:04:22;;;;;;;3.15;1.50;;;;;;;;;;5094526;28;20051;-75
2022/05/21 13:06:50;;;;;;;3.13;1.98;;;;;;;;;;5076644;28;20032;-75
2022/05/21 13:09:16;;;;;;;6.57;3.22;;;;;;;;;;5094419;28;20062;-76
2022/05/21 13:11:43;;;;;;;5.22;4.63;;;;;;;;;;5094431;28;20032;-75
2022/05/21 13:14:10;;;;;;;6.10;5.50;;;;;;;;;;5093127;28;20140;-75
2022/05/21 13:16:45;;;;;;;11.43;8.40;;;;;;;;;;5094113;28;20035;-76
2022/05/21 13:19:28;;;;;;;6.97;5.68;;;;;;;;;;5094212;28;20044;-75
2022/05/21 13:22:05;;;;;;;8.38;7.35;;;;;;;;;;5094096;28;20036;-75
2022/05/21 13:24:31;;;;;;;14.73;11.70;;;;;;;;;;5094192;28;20536;-75
2022/05/21 13:27:10;;;;;;;13.02;10.23;;;;;;;;;;5092857;28;20028;-75
2022/05/21 13:29:36;;;;;;;8.40;6.68;;;;;;;;;;5094078;28;20481;-75
2022/05/21 13:32:25;;;;;;;7.80;6.25;;;;;;;;;;5094087;28;20020;-76
2022/05/21 13:34:51;;;;;;;12.15;6.40;;;;;;;;;;5094222;28;20036;-75
2022/05/21 13:37:18;;;;;;;8.50;6.28;;;;;;;;;;5094001;28;20035;-75
2022/05/21 13:39:56;;;;;;;12.85;11.40;;;;;;;;;;5092849;28;20032;-75
2022/05/21 13:42:21;;;;;;;9.20;6.35;;;;;;;;;;5094006;28;20040;-76
2022/05/21 13:44:49;;;;;;;10.32;6.93;;;;;;;;;;5092633;28;20028;-76
2022/05/21 13:47:20;;;;;;;9.55;7.25;;;;;;;;;;5093840;28;20036;-75
2022/05/21 13:49:48;;;;;;;6.88;6.13;;;;;;;;;;5093879;28;20501;-75
2022/05/21 13:52:13;;;;;;;7.25;6.20;;;;;;;;;;5093779;28;20382;-75
2022/05/21 13:54:41;;;;;;;10.43;8.27;;;;;;;;;;5093768;28;20036;-75
2022/05/21 13:57:14;;;;;;;11.48;8.35;;;;;;;;;;5093873;28;20034;-76
2022/05/21 13:59:59;;;;;;;9.65;7.28;;;;;;;;;;5093837;28;20085;-75
2022/05/21 14:02:25;;;;;;;6.47;5.38;;;;;;;;;;5093917;28;20162;-75
2022/05/21 14:04:50;;;;;;;7.53;4.90;;;;;;;;;;5093689;28;20508;-75
2022/05/21 14:07:22;;;;;;;7.20;4.88;;;;;;;;;;5093604;28;20270;-75
2022/05/21 14:09:49;;;;;;;4.57;4.18;;;;;;;;;;5094001;28;20036;-75
2022/05/21 14:12:22;;;;;;;6.00;4.30;;;;;;;;;;5093697;28;20482;-76
2022/05/21 14:14:49;;;;;;;7.72;5.55;;;;;;;;;;5092431;28;20525;-75
2022/05/21 14:17:14;;;;;;;8.13;6.00;;;;;;;;;;5093552;28;20040;-75
2022/05/21 14:19:40;;;;;;;8.48;5.13;;;;;;;;;;5093679;28;20024;-75
2022/05/21 14:22:13;;;;;;;3.50;3.20;;;;;;;;;;5093494;28;20474;-75
2022/05/21 14:24:47;;;;;;;3.03;2.72;;;;;;;;;;5093434;28;20047;-76
2022/05/21 14:27:14;;;;;;;1.40;1.30;;;;;;;;;;5093777;28;20060;-76
2022/05/21 14:29:41;;;;;;;2.47;0.90;;;;;;;;;;5093743;28;20067;-76
2022/05/21 14:32:12;;;;;;;0.90;0.90;;;;;;;;;;5093407;28;20669;-75
2022/05/21 14:34:37;;;;;;;1.58;0.90;;;;;;;;;;5093461;28;20071;-75
2022/05/21 14:37:03;;;;;;;3.90;1.48;;;;;;;;;;5093384;28;20056;-75
2022/05/21 14:39:28;;;;;;;3.72;3.45;;;;;;;;;;5093335;28;20032;-76
2022/05/21 14:41:58;;;;;;;2.80;2.60;;;;;;;;;;5095439;28;20462;-76
2022/05/21 14:44:24;;;;;;;3.15;2.50;;;;;;;;;;5097252;28;20036;-76
2022/05/21 14:49:34;;;;;;;3.20;3.00;;;;;;;;;;5097125;28;20032;-76
2022/05/21 14:54:44;;;;;;;1.50;1.00;;;;;;;;;;5096995;28;20119;-76
2022/05/21 14:57:14;;;;;;;1.65;1.00;;;;;;;;;;5097017;28;20036;-76
2022/05/21 14:59:39;;;;;;;2.22;1.10;;;;;;;;;;5096811;28;20032;-76
2022/05/21 15:02:05;;;;;;;0.98;0.80;;;;;;;;;;5095926;28;20515;-76
2022/05/21 15:04:32;;;;;;;2.30;1.45;;;;;;;;;;5096857;28;20431;-76
2022/05/21 15:06:57;;;;;;;1.23;1.00;;;;;;;;;;5096897;28;20060;-76
2022/05/21 15:09:22;;;;;;;2.33;0.90;;;;;;;;;;5095597;28;20039;-76
2022/05/21 15:11:48;;;;;;;3.03;1.40;;;;;;;;;;5096784;28;20043;-76
2022/05/21 15:14:14;;;;;;;4.18;1.33;;;;;;;;;;5096742;28;20052;-76
2022/05/21 15:16:40;;;;;;;1.17;1.08;;;;;;;;;;5096539;28;20533;-76
2022/05/21 15:19:05;;;;;;;3.90;0.93;;;;;;;;;;5096516;28;20125;-76
2022/05/21 15:21:32;;;;;;;1.15;1.02;;;;;;;;;;5095534;28;20036;-76
2022/05/21 15:23:57;;;;;;;2.20;0.73;;;;;;;;;;5095581;28;20450;-76
2022/05/21 15:26:23;;;;;;;2.42;1.10;;;;;;;;;;5096468;28;20107;-77
2022/05/21 15:28:48;;;;;;;1.02;0.82;;;;;;;;;;5096449;28;20098;-76
2022/05/21 15:31:15;;;;;;;3.33;0.93;;;;;;;;;;5096323;28;20599;-76
2022/05/21 15:33:40;;;;;;;3.78;0.85;;;;;;;;;;5096404;28;20061;-76
2022/05/21 15:36:06;;;;;;;1.58;0.70;;;;;;;;;;5096272;28;20078;-77
2022/05/21 15:38:32;;;;;;;1.48;0.60;;;;;;;;;;5096161;28;20032;-76
2022/05/21 15:40:57;;;;;;;1.08;0.90;;;;;;;;;;5096023;28;20024;-76
2022/05/21 15:43:23;;;;;;;2.90;1.10;;;;;;;;;;5096212;28;20035;-76
2022/05/21 15:45:52;;;;;;;2.80;1.10;;;;;;;;;;5096089;28;20032;-76
2022/05/21 15:48:18;;;;;;;1.27;1.05;;;;;;;;;;5096006;28;20036;-76
2022/05/21 15:50:43;;;;;;;1.85;1.17;;;;;;;;;;5095993;28;20028;-76
2022/05/21 15:53:09;;;;;;;2.65;1.42;;;;;;;;;;5093437;28;20486;-77
2022/05/21 15:55:36;;;;;;;3.00;1.20;;;;;;;;;;5094696;28;20077;-76
2022/05/21 15:58:02;;;;;;;1.52;1.20;;;;;;;;;;5095827;28;20036;-76
2022/05/21 16:00:28;;;;;;;4.68;2.67;;;;;;;;;;5094443;28;20032;-76
2022/05/21 16:02:54;;;;;;;6.00;3.80;;;;;;;;;;5077642;28;20044;-76
2022/05/21 16:05:20;;;;;;;4.50;4.03;;;;;;;;;;5095708;28;20542;-76
2022/05/21 16:07:46;;;;;;;4.70;3.60;;;;;;;;;;5094442;28;20032;-76
2022/05/21 16:10:13;;;;;;;2.35;2.05;;;;;;;;;;5095603;28;20085;-77
2022/05/21 16:12:38;;;;;;;1.42;1.30;;;;;;;;;;5095687;28;20040;-76
2022/05/21 16:15:06;;;;;;;1.42;1.33;;;;;;;;;;5095465;28;20035;-77
2022/05/21 16:17:32;;;;;;;1.60;1.45;;;;;;;;;;5095240;28;20058;-76
2022/05/21 16:19:57;;;;;;;2.40;1.55;;;;;;;;;;5095223;28;20040;-78
2022/05/21 16:22:23;;;;;;;1.43;1.33;;;;;;;;;;5095286;28;20035;-77
2022/05/21 16:24:49;;;;;;;2.83;1.50;;;;;;;;;;5095263;28;20350;-77
2022/05/21 16:27:21;;;;;;;1.48;1.38;;;;;;;;;;5094346;28;20442;-76
2022/05/21 16:29:47;;;;;;;4.70;1.63;;;;;;;;;;5095216;28;20111;-77
2022/05/21 16:32:14;;;;;;;5.55;1.60;;;;;;;;;;5095159;28;20111;-76
2022/05/21 16:34:39;;;;;;;2.05;1.70;;;;;;;;;;5093837;28;20439;-76
2022/05/21 16:37:05;;;;;;;2.58;2.30;;;;;;;;;;5095060;28;20032;-77
2022/05/21 16:39:31;;;;;;;2.95;2.42;;;;;;;;;;5095063;28;20429;-77
2022/05/21 16:41:56;;;;;;;2.13;2.03;;;;;;;;;;5094912;28;20028;-76
2022/05/21 16:44:22;;;;;;;2.35;2.15;;;;;;;;;;5094854;28;20032;-77
2022/05/21 16:46:47;;;;;;;4.97;2.10;;;;;;;;;;5094857;28;20039;-77
2022/05/21 16:49:13;;;;;;;3.50;2.38;;;;;;;;;;5094790;28;20477;-77
2022/05/21 16:51:38;;;;;;;3.20;2.07;;;;;;;;;;5094850;28;20043;-77
2022/05/21 16:54:04;;;;;;;2.55;1.83;;;;;;;;;;5093616;28;20274;-77
2022/05/21 16:56:29;;;;;;;3.13;1.85;;;;;;;;;;5094712;28;20028;-77
2022/05/21 16:58:55;;;;;;;3.00;1.48;;;;;;;;;;5094702;28;20115;-77
2022/05/21 17:01:20;;;;;;;2.97;1.20;;;;;;;;;;5094527;28;20028;-77
2022/05/21 17:03:49;;;;;;;1.73;1.40;;;;;;;;;;5094282;28;20266;-77
2022/05/21 17:06:14;;;;;;;2.80;1.27;;;;;;;;;;5094500;28;20024;-77
2022/05/21 17:08:43;;;;;;;1.25;0.93;;;;;;;;;;5094440;28;20114;-82